Enterprise, West Virginia
Current Conditions -  °F | °C
As of 2:53 PM on Thursday 29 Jan 2015 (Local Time) from KCKB Reporting Station
Overcast Overcast  
Wind Chill: 35°   Ceiling: 3900
Heat Index: 41°   Visibility: 10mi
Dew Point: 35°   Wind: 9mph
Humidity: 79%   Direction: 200°SSW
Pressure: 29.85"   Gusts: NA
Location:  39.42°N, 80.28°W
Report Text: KCKB 291953Z 20008KT 10SM OVC039 05/02 A2985 RMK AO2 SLP115 T00500017
Loading
Personal Weather Stations






























Interactive Weather Map New forecast layout! Learn more

10-Day Weather Forecast

Advertisements
Track Severe Weather on mobile